SWA3683 KORD-KDEN
Flight info
| Callsign | SWA3683 |
|---|---|
| Flight time | 2h 9m |
| Altitude | 36000 |
| Route | OLINN OREOS OBENE OGALE BRWRY LAWGR4 |
| Aircraft | B38M/M-SDE1FGHILORVWXY/HB1 |
Departure
| Time | 2026-05-04 17:30 |
|---|---|
| Airport | Chicago O'Hare International Airport (KORD) |
Arrival
| Time | 2026-05-04 19:40 |
|---|---|
| Airport | Denver International Airport (KDEN) |
| Time | Latitude | Longitude | Altitude | Speed | Heading |
|---|---|---|---|---|---|
| 2026-05-04 16:56 | 41.97971 | -87.90727 | 666 ft | 0 kts | 99° |
| 2026-05-04 17:14 | 41.97971 | -87.90734 | 666 ft | 2 kts | 99° |
| 2026-05-04 17:14 | 41.97982 | -87.90771 | 666 ft | 2 kts | 133° |
| 2026-05-04 17:15 | 41.97994 | -87.90784 | 666 ft | 2 kts | 151° |
| 2026-05-04 17:15 | 41.98021 | -87.90792 | 666 ft | 0 kts | 187° |
| 2026-05-04 17:16 | 41.98029 | -87.90790 | 665 ft | 0 kts | 190° |
| 2026-05-04 17:19 | 41.98001 | -87.90797 | 666 ft | 3 kts | 189° |
| 2026-05-04 17:19 | 41.97935 | -87.90811 | 666 ft | 4 kts | 189° |
| 2026-05-04 17:20 | 41.97865 | -87.90828 | 665 ft | 9 kts | 190° |
| 2026-05-04 17:20 | 41.97601 | -87.90913 | 666 ft | 16 kts | 208° |
| 2026-05-04 17:20 | 41.97530 | -87.91014 | 668 ft | 13 kts | 239° |
| 2026-05-04 17:21 | 41.97490 | -87.91071 | 669 ft | 8 kts | 205° |
| 2026-05-04 17:21 | 41.97335 | -87.91449 | 669 ft | 21 kts | 231° |
| 2026-05-04 17:22 | 41.97247 | -87.91488 | 669 ft | 13 kts | 177° |
| 2026-05-04 17:22 | 41.97165 | -87.91451 | 669 ft | 12 kts | 116° |
| 2026-05-04 17:23 | 41.97151 | -87.90688 | 669 ft | 38 kts | 94° |
| 2026-05-04 17:23 | 41.97133 | -87.90324 | 665 ft | 37 kts | 78° |
| 2026-05-04 17:23 | 41.97054 | -87.90093 | 661 ft | 12 kts | 117° |
| 2026-05-04 17:24 | 41.97043 | -87.89942 | 660 ft | 25 kts | 91° |
| 2026-05-04 17:24 | 41.97041 | -87.88985 | 656 ft | 25 kts | 91° |
| 2026-05-04 17:25 | 41.97044 | -87.88756 | 656 ft | 24 kts | 90° |
| 2026-05-04 17:25 | 41.97043 | -87.88316 | 656 ft | 20 kts | 89° |
| 2026-05-04 17:26 | 41.97044 | -87.88120 | 654 ft | 8 kts | 89° |
| 2026-05-04 17:26 | 41.97044 | -87.88116 | 654 ft | 0 kts | 89° |
| 2026-05-04 17:28 | 41.97044 | -87.88108 | 654 ft | 4 kts | 95° |
| 2026-05-04 17:29 | 41.96952 | -87.88029 | 653 ft | 1 kts | 219° |
| 2026-05-04 17:29 | 41.95346 | -87.89917 | 1194 ft | 187 kts | 221° |
| 2026-05-04 17:30 | 41.93281 | -87.92374 | 3203 ft | 206 kts | 224° |
| 2026-05-04 17:31 | 41.91436 | -87.94953 | 5218 ft | 186 kts | 249° |
| 2026-05-04 17:31 | 41.93133 | -88.00241 | 6305 ft | 229 kts | 288° |
| 2026-05-04 17:32 | 41.93393 | -88.01629 | 6331 ft | 230 kts | 272° |
| 2026-05-04 17:33 | 41.92606 | -88.11586 | 10395 ft | 266 kts | 264° |
| 2026-05-04 17:33 | 41.92420 | -88.14130 | 11173 ft | 283 kts | 265° |
| 2026-05-04 17:34 | 41.91801 | -88.22570 | 13376 ft | 327 kts | 265° |
| 2026-05-04 17:34 | 41.91575 | -88.25597 | 14373 ft | 330 kts | 265° |
| 2026-05-04 17:35 | 41.90874 | -88.34876 | 17078 ft | 341 kts | 265° |
| 2026-05-04 17:35 | 41.90391 | -88.41225 | 18707 ft | 349 kts | 265° |
| 2026-05-04 17:35 | 41.90147 | -88.44422 | 19525 ft | 352 kts | 265° |
| 2026-05-04 17:36 | 41.89895 | -88.47723 | 20282 ft | 356 kts | 265° |
| 2026-05-04 17:36 | 41.89641 | -88.51022 | 21009 ft | 360 kts | 265° |
| 2026-05-04 17:36 | 41.89383 | -88.54358 | 21743 ft | 363 kts | 265° |
| 2026-05-04 17:36 | 41.89202 | -88.56689 | 22271 ft | 365 kts | 265° |
| 2026-05-04 17:37 | 41.89012 | -88.59136 | 22712 ft | 368 kts | 265° |
| 2026-05-04 17:37 | 41.88744 | -88.62573 | 23311 ft | 373 kts | 265° |
| 2026-05-04 17:37 | 41.88471 | -88.66061 | 23902 ft | 378 kts | 265° |
| 2026-05-04 17:37 | 41.88197 | -88.69540 | 24600 ft | 380 kts | 265° |
| 2026-05-04 17:38 | 41.87918 | -88.73077 | 25180 ft | 385 kts | 265° |
| 2026-05-04 17:38 | 41.87634 | -88.76653 | 25723 ft | 389 kts | 265° |
| 2026-05-04 17:38 | 41.87347 | -88.80254 | 26287 ft | 392 kts | 265° |
| 2026-05-04 17:38 | 41.87055 | -88.83909 | 26834 ft | 396 kts | 265° |
| 2026-05-04 17:39 | 41.86461 | -88.91297 | 27846 ft | 403 kts | 265° |
| 2026-05-04 17:39 | 41.86160 | -88.95022 | 28364 ft | 406 kts | 265° |
| 2026-05-04 17:39 | 41.85855 | -88.98779 | 28849 ft | 410 kts | 265° |
| 2026-05-04 17:40 | 41.85545 | -89.02580 | 29307 ft | 414 kts | 265° |
| 2026-05-04 17:40 | 41.85225 | -89.06484 | 29794 ft | 417 kts | 265° |
| 2026-05-04 17:40 | 41.84905 | -89.10387 | 30224 ft | 421 kts | 265° |
| 2026-05-04 17:40 | 41.84580 | -89.14332 | 30660 ft | 424 kts | 265° |
| 2026-05-04 17:41 | 41.84249 | -89.18313 | 31280 ft | 423 kts | 265° |
| 2026-05-04 17:41 | 41.83924 | -89.22199 | 32004 ft | 419 kts | 265° |
| 2026-05-04 17:41 | 41.83598 | -89.26096 | 32611 ft | 417 kts | 265° |
| 2026-05-04 17:41 | 41.83272 | -89.29971 | 33170 ft | 416 kts | 265° |
| 2026-05-04 17:42 | 41.82952 | -89.33764 | 33799 ft | 412 kts | 265° |
| 2026-05-04 17:42 | 41.82634 | -89.37519 | 34363 ft | 410 kts | 265° |
| 2026-05-04 17:42 | 41.82309 | -89.41343 | 34802 ft | 410 kts | 265° |
| 2026-05-04 17:42 | 41.81987 | -89.45110 | 35211 ft | 410 kts | 265° |
| 2026-05-04 17:43 | 41.81663 | -89.48898 | 35574 ft | 410 kts | 265° |
| 2026-05-04 17:43 | 41.81337 | -89.52683 | 35636 ft | 415 kts | 265° |
| 2026-05-04 17:43 | 41.80683 | -89.60240 | 35644 ft | 408 kts | 265° |
| 2026-05-04 17:44 | 41.80023 | -89.67805 | 35648 ft | 409 kts | 264° |
| 2026-05-04 17:44 | 41.79360 | -89.75366 | 35648 ft | 409 kts | 265° |
| 2026-05-04 17:45 | 41.78693 | -89.82912 | 35642 ft | 408 kts | 265° |
| 2026-05-04 17:45 | 41.78019 | -89.90469 | 35643 ft | 409 kts | 265° |
| 2026-05-04 17:46 | 41.77344 | -89.97971 | 35636 ft | 409 kts | 265° |
| 2026-05-04 17:46 | 41.76659 | -90.05537 | 35633 ft | 408 kts | 265° |
| 2026-05-04 17:47 | 41.75974 | -90.13041 | 35650 ft | 409 kts | 264° |
| 2026-05-04 17:47 | 41.75280 | -90.20589 | 35653 ft | 408 kts | 265° |
| 2026-05-04 17:48 | 41.74585 | -90.28098 | 35646 ft | 407 kts | 265° |
| 2026-05-04 17:48 | 41.73886 | -90.35613 | 35654 ft | 409 kts | 265° |
| 2026-05-04 17:49 | 41.73177 | -90.43160 | 35651 ft | 409 kts | 265° |
| 2026-05-04 17:49 | 41.72460 | -90.50728 | 35654 ft | 410 kts | 265° |
| 2026-05-04 17:50 | 41.71740 | -90.58287 | 35652 ft | 409 kts | 265° |
| 2026-05-04 17:50 | 41.71021 | -90.65771 | 35653 ft | 408 kts | 264° |
| 2026-05-04 17:51 | 41.70296 | -90.73284 | 35642 ft | 410 kts | 264° |
| 2026-05-04 17:51 | 41.69565 | -90.80799 | 35643 ft | 409 kts | 264° |
| 2026-05-04 17:52 | 41.68827 | -90.88353 | 35630 ft | 411 kts | 264° |
| 2026-05-04 17:52 | 41.68083 | -90.95906 | 35637 ft | 411 kts | 264° |
| 2026-05-04 17:53 | 41.67332 | -91.03463 | 35635 ft | 409 kts | 264° |
| 2026-05-04 17:53 | 41.66579 | -91.10986 | 35638 ft | 410 kts | 264° |
| 2026-05-04 17:54 | 41.65823 | -91.18502 | 35637 ft | 409 kts | 264° |
| 2026-05-04 17:54 | 41.65061 | -91.26022 | 35626 ft | 409 kts | 264° |
| 2026-05-04 17:55 | 41.64292 | -91.33552 | 35633 ft | 409 kts | 264° |
| 2026-05-04 17:55 | 41.63521 | -91.41055 | 35651 ft | 410 kts | 264° |
| 2026-05-04 17:56 | 41.62746 | -91.48548 | 35663 ft | 409 kts | 264° |
| 2026-05-04 17:56 | 41.61963 | -91.56077 | 35660 ft | 411 kts | 264° |
| 2026-05-04 17:57 | 41.61176 | -91.63586 | 35664 ft | 411 kts | 264° |
| 2026-05-04 17:57 | 41.60379 | -91.71137 | 35661 ft | 410 kts | 263° |
| 2026-05-04 17:58 | 41.59578 | -91.78693 | 35649 ft | 410 kts | 263° |
| 2026-05-04 17:58 | 41.58781 | -91.86158 | 35647 ft | 410 kts | 264° |
| 2026-05-04 17:59 | 41.57967 | -91.93733 | 35645 ft | 408 kts | 264° |
| 2026-05-04 18:00 | 41.56753 | -92.04936 | 35639 ft | 409 kts | 263° |
| 2026-05-04 18:00 | 41.55934 | -92.12485 | 35639 ft | 410 kts | 263° |
| 2026-05-04 18:01 | 41.55116 | -92.19942 | 35643 ft | 409 kts | 263° |
| 2026-05-04 18:01 | 41.54282 | -92.27466 | 35648 ft | 410 kts | 263° |
| 2026-05-04 18:02 | 41.53029 | -92.38721 | 35642 ft | 409 kts | 263° |
| 2026-05-04 18:02 | 41.52189 | -92.46215 | 35658 ft | 410 kts | 263° |
| 2026-05-04 18:03 | 41.51341 | -92.53695 | 35672 ft | 408 kts | 263° |
| 2026-05-04 18:03 | 41.50495 | -92.61153 | 35670 ft | 409 kts | 263° |
| 2026-05-04 18:04 | 41.49644 | -92.68613 | 35670 ft | 408 kts | 263° |
| 2026-05-04 18:05 | 41.48355 | -92.79816 | 35671 ft | 408 kts | 263° |
| 2026-05-04 18:05 | 41.47493 | -92.87268 | 35664 ft | 408 kts | 263° |
| 2026-05-04 18:06 | 41.46186 | -92.98438 | 35662 ft | 407 kts | 263° |
| 2026-05-04 18:06 | 41.45309 | -93.05877 | 35654 ft | 409 kts | 263° |
| 2026-05-04 18:07 | 41.44426 | -93.13356 | 35653 ft | 409 kts | 263° |
| 2026-05-04 18:07 | 41.43538 | -93.20830 | 35654 ft | 407 kts | 263° |
| 2026-05-04 18:08 | 41.42649 | -93.28252 | 35657 ft | 408 kts | 263° |
| 2026-05-04 18:08 | 41.41759 | -93.35651 | 35652 ft | 408 kts | 263° |
| 2026-05-04 18:09 | 41.40061 | -93.50543 | 35657 ft | 407 kts | 266° |
| 2026-05-04 18:10 | 41.39607 | -93.58033 | 35662 ft | 406 kts | 268° |
| 2026-05-04 18:10 | 41.39236 | -93.65523 | 35663 ft | 408 kts | 268° |
| 2026-05-04 18:11 | 41.38848 | -93.73045 | 35651 ft | 407 kts | 267° |
| 2026-05-04 18:11 | 41.38436 | -93.80612 | 35663 ft | 409 kts | 267° |
| 2026-05-04 18:12 | 41.38014 | -93.88093 | 35652 ft | 408 kts | 267° |
| 2026-05-04 18:12 | 41.37579 | -93.95618 | 35651 ft | 405 kts | 267° |
| 2026-05-04 18:13 | 41.37141 | -94.03044 | 35652 ft | 405 kts | 267° |
| 2026-05-04 18:14 | 41.36477 | -94.14234 | 35659 ft | 406 kts | 267° |
| 2026-05-04 18:14 | 41.36029 | -94.21691 | 35668 ft | 404 kts | 267° |
| 2026-05-04 18:15 | 41.35119 | -94.36573 | 35678 ft | 404 kts | 267° |
| 2026-05-04 18:16 | 41.34658 | -94.43972 | 35677 ft | 405 kts | 267° |
| 2026-05-04 18:16 | 41.34187 | -94.51424 | 35680 ft | 404 kts | 267° |
| 2026-05-04 18:17 | 41.33476 | -94.62579 | 35681 ft | 403 kts | 267° |
| 2026-05-04 18:18 | 41.32756 | -94.73720 | 35686 ft | 404 kts | 266° |
| 2026-05-04 18:18 | 41.32270 | -94.81137 | 35679 ft | 403 kts | 266° |
| 2026-05-04 18:19 | 41.31536 | -94.92210 | 35674 ft | 401 kts | 266° |
| 2026-05-04 18:19 | 41.31040 | -94.99590 | 35672 ft | 403 kts | 266° |
| 2026-05-04 18:20 | 41.30541 | -95.06970 | 35672 ft | 402 kts | 266° |
| 2026-05-04 18:20 | 41.30035 | -95.14372 | 35676 ft | 402 kts | 266° |
| 2026-05-04 18:21 | 41.29525 | -95.21770 | 35681 ft | 403 kts | 266° |
| 2026-05-04 18:21 | 41.29010 | -95.29128 | 35681 ft | 402 kts | 266° |
| 2026-05-04 18:22 | 41.28489 | -95.36525 | 35681 ft | 403 kts | 266° |
| 2026-05-04 18:22 | 41.27966 | -95.43913 | 35684 ft | 403 kts | 266° |
| 2026-05-04 18:23 | 41.27491 | -95.50560 | 35684 ft | 403 kts | 266° |
| 2026-05-04 18:23 | 41.26960 | -95.57909 | 35686 ft | 401 kts | 266° |
| 2026-05-04 18:24 | 41.26511 | -95.64061 | 35686 ft | 402 kts | 266° |
| 2026-05-04 18:24 | 41.25880 | -95.72633 | 35685 ft | 400 kts | 265° |
| 2026-05-04 18:25 | 41.25335 | -95.79991 | 35687 ft | 400 kts | 266° |
| 2026-05-04 18:25 | 41.24787 | -95.87323 | 35688 ft | 401 kts | 265° |
| 2026-05-04 18:26 | 41.24233 | -95.94657 | 35687 ft | 399 kts | 266° |
| 2026-05-04 18:26 | 41.23672 | -96.02004 | 35687 ft | 400 kts | 266° |
| 2026-05-04 18:27 | 41.23111 | -96.09318 | 35684 ft | 399 kts | 266° |
| 2026-05-04 18:27 | 41.22545 | -96.16637 | 35689 ft | 399 kts | 266° |
| 2026-05-04 18:28 | 41.21972 | -96.23955 | 35690 ft | 398 kts | 265° |
| 2026-05-04 18:28 | 41.21399 | -96.31226 | 35692 ft | 398 kts | 266° |
| 2026-05-04 18:29 | 41.20819 | -96.38541 | 35695 ft | 397 kts | 266° |
| 2026-05-04 18:29 | 41.20239 | -96.45786 | 35693 ft | 398 kts | 266° |
| 2026-05-04 18:30 | 41.19355 | -96.56713 | 35702 ft | 396 kts | 266° |
| 2026-05-04 18:31 | 41.18765 | -96.63960 | 35707 ft | 396 kts | 266° |
| 2026-05-04 18:31 | 41.18174 | -96.71177 | 35706 ft | 395 kts | 266° |
| 2026-05-04 18:32 | 41.17572 | -96.78436 | 35708 ft | 396 kts | 266° |
| 2026-05-04 18:32 | 41.16964 | -96.85672 | 35707 ft | 394 kts | 265° |
| 2026-05-04 18:33 | 41.16356 | -96.92886 | 35708 ft | 395 kts | 266° |
| 2026-05-04 18:33 | 41.15746 | -97.00096 | 35708 ft | 393 kts | 266° |
| 2026-05-04 18:34 | 41.15131 | -97.07293 | 35714 ft | 394 kts | 266° |
| 2026-05-04 18:34 | 41.14512 | -97.14473 | 35710 ft | 392 kts | 266° |
| 2026-05-04 18:35 | 41.13889 | -97.21662 | 35716 ft | 393 kts | 266° |
| 2026-05-04 18:35 | 41.13259 | -97.28858 | 35722 ft | 393 kts | 266° |
| 2026-05-04 18:36 | 41.12624 | -97.36054 | 35724 ft | 393 kts | 266° |
| 2026-05-04 18:36 | 41.11986 | -97.43259 | 35728 ft | 393 kts | 265° |
| 2026-05-04 18:37 | 41.11350 | -97.50401 | 35724 ft | 392 kts | 265° |
| 2026-05-04 18:37 | 41.10706 | -97.57556 | 35716 ft | 394 kts | 266° |
| 2026-05-04 18:38 | 41.10058 | -97.64714 | 35724 ft | 391 kts | 266° |
| 2026-05-04 18:38 | 41.09402 | -97.71895 | 35722 ft | 392 kts | 265° |
| 2026-05-04 18:39 | 41.08747 | -97.79022 | 35726 ft | 392 kts | 265° |
| 2026-05-04 18:39 | 41.08083 | -97.86200 | 35730 ft | 391 kts | 265° |
| 2026-05-04 18:40 | 41.07419 | -97.93324 | 35738 ft | 391 kts | 265° |
| 2026-05-04 18:40 | 41.06753 | -98.00423 | 35738 ft | 391 kts | 265° |
| 2026-05-04 18:41 | 41.06075 | -98.07604 | 35748 ft | 393 kts | 265° |
| 2026-05-04 18:41 | 41.05400 | -98.14726 | 35744 ft | 392 kts | 265° |
| 2026-05-04 18:42 | 41.04720 | -98.21842 | 35742 ft | 391 kts | 265° |
| 2026-05-04 18:42 | 41.04027 | -98.29028 | 35748 ft | 392 kts | 265° |
| 2026-05-04 18:43 | 41.03332 | -98.36207 | 35740 ft | 390 kts | 265° |
| 2026-05-04 18:43 | 41.02636 | -98.43350 | 35747 ft | 392 kts | 265° |
| 2026-05-04 18:44 | 41.01935 | -98.50476 | 35748 ft | 391 kts | 265° |
| 2026-05-04 18:44 | 41.01231 | -98.57599 | 35739 ft | 390 kts | 265° |
| 2026-05-04 18:45 | 41.00520 | -98.64716 | 35752 ft | 389 kts | 265° |
| 2026-05-04 18:45 | 40.99812 | -98.71802 | 35751 ft | 391 kts | 264° |
| 2026-05-04 18:46 | 40.99098 | -98.78883 | 35748 ft | 388 kts | 264° |
| 2026-05-04 18:46 | 40.98381 | -98.85972 | 35754 ft | 392 kts | 264° |
| 2026-05-04 18:47 | 40.97656 | -98.93086 | 35761 ft | 390 kts | 264° |
| 2026-05-04 18:47 | 40.96924 | -99.00208 | 35764 ft | 389 kts | 264° |
| 2026-05-04 18:48 | 40.96197 | -99.07240 | 35775 ft | 389 kts | 264° |
| 2026-05-04 18:48 | 40.95461 | -99.14352 | 35766 ft | 390 kts | 264° |
| 2026-05-04 18:49 | 40.94718 | -99.21406 | 35757 ft | 388 kts | 264° |
| 2026-05-04 18:49 | 40.93980 | -99.28407 | 35762 ft | 388 kts | 264° |
| 2026-05-04 18:50 | 40.93231 | -99.35493 | 35758 ft | 390 kts | 264° |
| 2026-05-04 18:50 | 40.92482 | -99.42539 | 35753 ft | 389 kts | 264° |
| 2026-05-04 18:51 | 40.91729 | -99.49575 | 35762 ft | 388 kts | 264° |
| 2026-05-04 18:51 | 40.90969 | -99.56632 | 35769 ft | 387 kts | 264° |
| 2026-05-04 18:52 | 40.90202 | -99.63682 | 35761 ft | 386 kts | 264° |
| 2026-05-04 18:52 | 40.89437 | -99.70691 | 35762 ft | 385 kts | 264° |
| 2026-05-04 18:53 | 40.88678 | -99.77679 | 35780 ft | 384 kts | 264° |
| 2026-05-04 18:53 | 40.87908 | -99.84664 | 35781 ft | 385 kts | 264° |
| 2026-05-04 18:54 | 40.87135 | -99.91627 | 35790 ft | 387 kts | 263° |
| 2026-05-04 18:54 | 40.86353 | -99.98608 | 35793 ft | 384 kts | 264° |
| 2026-05-04 18:55 | 40.85565 | -100.05610 | 35779 ft | 384 kts | 263° |
| 2026-05-04 18:55 | 40.84378 | -100.16085 | 35788 ft | 385 kts | 264° |
| 2026-05-04 18:56 | 40.83591 | -100.23041 | 35788 ft | 385 kts | 264° |
| 2026-05-04 18:56 | 40.82795 | -100.29993 | 35792 ft | 385 kts | 264° |
| 2026-05-04 18:57 | 40.81994 | -100.36940 | 35800 ft | 384 kts | 264° |
| 2026-05-04 18:57 | 40.81187 | -100.43913 | 35788 ft | 384 kts | 264° |
| 2026-05-04 18:58 | 40.80378 | -100.50867 | 35783 ft | 381 kts | 264° |
| 2026-05-04 18:58 | 40.79576 | -100.57744 | 35789 ft | 380 kts | 264° |
| 2026-05-04 18:59 | 40.78770 | -100.64603 | 35800 ft | 383 kts | 264° |
| 2026-05-04 18:59 | 40.77801 | -100.71484 | 35771 ft | 382 kts | 260° |
| 2026-05-04 19:00 | 40.76601 | -100.78290 | 35782 ft | 382 kts | 260° |
| 2026-05-04 19:00 | 40.75390 | -100.85129 | 35772 ft | 379 kts | 260° |
| 2026-05-04 19:01 | 40.74213 | -100.91893 | 35804 ft | 383 kts | 260° |
| 2026-05-04 19:01 | 40.73047 | -100.98682 | 35811 ft | 380 kts | 261° |
| 2026-05-04 19:02 | 40.71869 | -101.05516 | 35765 ft | 380 kts | 261° |
| 2026-05-04 19:02 | 40.70700 | -101.12260 | 35786 ft | 379 kts | 261° |
| 2026-05-04 19:03 | 40.69523 | -101.19025 | 35774 ft | 379 kts | 261° |
| 2026-05-04 19:03 | 40.68349 | -101.25749 | 35803 ft | 379 kts | 261° |
| 2026-05-04 19:04 | 40.67169 | -101.32485 | 35797 ft | 377 kts | 261° |
| 2026-05-04 19:04 | 40.65986 | -101.39166 | 35813 ft | 377 kts | 260° |
| 2026-05-04 19:05 | 40.64793 | -101.45882 | 35817 ft | 376 kts | 261° |
| 2026-05-04 19:05 | 40.63617 | -101.52557 | 35816 ft | 376 kts | 261° |
| 2026-05-04 19:06 | 40.62425 | -101.59242 | 35827 ft | 375 kts | 261° |
| 2026-05-04 19:06 | 40.61231 | -101.65901 | 35808 ft | 374 kts | 260° |
| 2026-05-04 19:07 | 40.60041 | -101.72529 | 35817 ft | 373 kts | 261° |
| 2026-05-04 19:07 | 40.58839 | -101.79196 | 35815 ft | 372 kts | 260° |
| 2026-05-04 19:08 | 40.57644 | -101.85787 | 35817 ft | 372 kts | 261° |
| 2026-05-04 19:08 | 40.57046 | -101.89086 | 36009 ft | 373 kts | 260° |
| 2026-05-04 19:08 | 40.56444 | -101.92406 | 35838 ft | 369 kts | 261° |
| 2026-05-04 19:09 | 40.55247 | -101.98968 | 35807 ft | 372 kts | 261° |
| 2026-05-04 19:09 | 40.54039 | -102.05507 | 35817 ft | 370 kts | 260° |
| 2026-05-04 19:10 | 40.52827 | -102.12038 | 35812 ft | 369 kts | 261° |
| 2026-05-04 19:10 | 40.51614 | -102.18559 | 35827 ft | 369 kts | 260° |
| 2026-05-04 19:11 | 40.50394 | -102.25115 | 35819 ft | 368 kts | 260° |
| 2026-05-04 19:11 | 40.49177 | -102.31591 | 35831 ft | 366 kts | 260° |
| 2026-05-04 19:12 | 40.47349 | -102.41362 | 35846 ft | 367 kts | 260° |
| 2026-05-04 19:13 | 40.46135 | -102.47835 | 35836 ft | 367 kts | 260° |
| 2026-05-04 19:13 | 40.44909 | -102.54282 | 35853 ft | 364 kts | 260° |
| 2026-05-04 19:14 | 40.43670 | -102.60764 | 35855 ft | 368 kts | 260° |
| 2026-05-04 19:14 | 40.42444 | -102.67191 | 35852 ft | 364 kts | 259° |
| 2026-05-04 19:15 | 40.41206 | -102.73631 | 35856 ft | 364 kts | 260° |
| 2026-05-04 19:15 | 40.39967 | -102.80083 | 35860 ft | 365 kts | 260° |
| 2026-05-04 19:16 | 40.38723 | -102.86504 | 35859 ft | 362 kts | 260° |
| 2026-05-04 19:16 | 40.37482 | -102.92870 | 35870 ft | 361 kts | 261° |
| 2026-05-04 19:17 | 40.36232 | -102.99280 | 35878 ft | 363 kts | 260° |
| 2026-05-04 19:17 | 40.34993 | -103.05622 | 35874 ft | 360 kts | 260° |
| 2026-05-04 19:18 | 40.33744 | -103.12006 | 35870 ft | 363 kts | 259° |
| 2026-05-04 19:18 | 40.32497 | -103.18385 | 35874 ft | 359 kts | 260° |
| 2026-05-04 19:19 | 40.31251 | -103.24699 | 35861 ft | 363 kts | 260° |
| 2026-05-04 19:19 | 40.29994 | -103.31031 | 35872 ft | 359 kts | 259° |
| 2026-05-04 19:20 | 40.28738 | -103.37334 | 35873 ft | 359 kts | 260° |
| 2026-05-04 19:20 | 40.27483 | -103.43666 | 35875 ft | 359 kts | 259° |
| 2026-05-04 19:21 | 40.26220 | -103.49995 | 35880 ft | 360 kts | 260° |
| 2026-05-04 19:21 | 40.24950 | -103.56319 | 35892 ft | 360 kts | 259° |
| 2026-05-04 19:22 | 40.23704 | -103.62611 | 35875 ft | 360 kts | 260° |
| 2026-05-04 19:22 | 40.22459 | -103.68923 | 35881 ft | 356 kts | 259° |
| 2026-05-04 19:23 | 40.21217 | -103.75184 | 35872 ft | 358 kts | 259° |
| 2026-05-04 19:23 | 40.20588 | -103.78348 | 35748 ft | 354 kts | 259° |
| 2026-05-04 19:23 | 40.19974 | -103.81414 | 34805 ft | 353 kts | 259° |
| 2026-05-04 19:23 | 40.19350 | -103.84532 | 33309 ft | 363 kts | 260° |
| 2026-05-04 19:24 | 40.18688 | -103.87736 | 31914 ft | 374 kts | 257° |
| 2026-05-04 19:24 | 40.17867 | -103.90926 | 30539 ft | 386 kts | 251° |
| 2026-05-04 19:24 | 40.16725 | -103.94111 | 29006 ft | 396 kts | 245° |
| 2026-05-04 19:24 | 40.15358 | -103.97200 | 27443 ft | 403 kts | 241° |
| 2026-05-04 19:25 | 40.13884 | -104.00285 | 25874 ft | 407 kts | 240° |
| 2026-05-04 19:25 | 40.12364 | -104.03400 | 24272 ft | 409 kts | 239° |
| 2026-05-04 19:25 | 40.10860 | -104.06481 | 22718 ft | 408 kts | 239° |
| 2026-05-04 19:25 | 40.09356 | -104.09585 | 21139 ft | 408 kts | 239° |
| 2026-05-04 19:26 | 40.07872 | -104.12664 | 19589 ft | 407 kts | 239° |
| 2026-05-04 19:26 | 40.06378 | -104.15776 | 18060 ft | 405 kts | 239° |
| 2026-05-04 19:26 | 40.04927 | -104.18809 | 16607 ft | 401 kts | 239° |
| 2026-05-04 19:26 | 40.03465 | -104.21870 | 15217 ft | 396 kts | 239° |
| 2026-05-04 19:27 | 40.02045 | -104.24847 | 13857 ft | 392 kts | 239° |
| 2026-05-04 19:27 | 40.00632 | -104.27805 | 12577 ft | 386 kts | 239° |
| 2026-05-04 19:27 | 39.99235 | -104.30733 | 11285 ft | 381 kts | 240° |
| 2026-05-04 19:27 | 39.97862 | -104.33611 | 10193 ft | 372 kts | 240° |
| 2026-05-04 19:28 | 39.96532 | -104.36393 | 9916 ft | 351 kts | 240° |
| 2026-05-04 19:28 | 39.95294 | -104.38974 | 9891 ft | 316 kts | 240° |
| 2026-05-04 19:28 | 39.94194 | -104.41266 | 9903 ft | 287 kts | 240° |
| 2026-05-04 19:28 | 39.93185 | -104.43375 | 9914 ft | 261 kts | 241° |
| 2026-05-04 19:29 | 39.92262 | -104.45309 | 9922 ft | 241 kts | 241° |
| 2026-05-04 19:29 | 39.91418 | -104.47089 | 10194 ft | 226 kts | 240° |
| 2026-05-04 19:29 | 39.90503 | -104.48749 | 9915 ft | 229 kts | 227° |
| 2026-05-04 19:29 | 39.89122 | -104.49864 | 9307 ft | 245 kts | 197° |
| 2026-05-04 19:30 | 39.87420 | -104.50031 | 9182 ft | 245 kts | 182° |
| 2026-05-04 19:30 | 39.85729 | -104.50009 | 9026 ft | 245 kts | 183° |
| 2026-05-04 19:30 | 39.83992 | -104.50041 | 8985 ft | 251 kts | 184° |
| 2026-05-04 19:30 | 39.82229 | -104.50090 | 8954 ft | 262 kts | 183° |
| 2026-05-04 19:31 | 39.80374 | -104.50129 | 8826 ft | 266 kts | 182° |
| 2026-05-04 19:31 | 39.78544 | -104.50154 | 8825 ft | 257 kts | 183° |
| 2026-05-04 19:31 | 39.76796 | -104.50179 | 8899 ft | 251 kts | 182° |
| 2026-05-04 19:31 | 39.75015 | -104.50169 | 9014 ft | 257 kts | 182° |
| 2026-05-04 19:32 | 39.73195 | -104.50148 | 8950 ft | 267 kts | 182° |
| 2026-05-04 19:32 | 39.71354 | -104.50145 | 8934 ft | 265 kts | 182° |
| 2026-05-04 19:32 | 39.69521 | -104.50151 | 8933 ft | 265 kts | 182° |
| 2026-05-04 19:32 | 39.67669 | -104.50162 | 8933 ft | 265 kts | 182° |
| 2026-05-04 19:33 | 39.65830 | -104.50222 | 8939 ft | 261 kts | 190° |
| 2026-05-04 19:33 | 39.64255 | -104.51072 | 8879 ft | 231 kts | 224° |
| 2026-05-04 19:33 | 39.63350 | -104.52647 | 8622 ft | 213 kts | 248° |
| 2026-05-04 19:33 | 39.62912 | -104.54401 | 8420 ft | 197 kts | 263° |
| 2026-05-04 19:34 | 39.62788 | -104.56109 | 8243 ft | 183 kts | 272° |
| 2026-05-04 19:34 | 39.62912 | -104.57708 | 8001 ft | 175 kts | 283° |
| 2026-05-04 19:34 | 39.63161 | -104.59250 | 7598 ft | 179 kts | 283° |
| 2026-05-04 19:34 | 39.63399 | -104.60834 | 7286 ft | 176 kts | 282° |
| 2026-05-04 19:35 | 39.63614 | -104.62370 | 6950 ft | 175 kts | 282° |
| 2026-05-04 19:35 | 39.63854 | -104.63948 | 6757 ft | 187 kts | 288° |
| 2026-05-04 19:35 | 39.64531 | -104.65470 | 7230 ft | 207 kts | 315° |
| 2026-05-04 19:35 | 39.65825 | -104.66361 | 7167 ft | 218 kts | 349° |
| 2026-05-04 19:36 | 39.67325 | -104.66351 | 7037 ft | 207 kts | 3° |
| 2026-05-04 19:36 | 39.68700 | -104.66206 | 7020 ft | 200 kts | 359° |
| 2026-05-04 19:36 | 39.70183 | -104.66173 | 7415 ft | 222 kts | 357° |
| 2026-05-04 19:36 | 39.71759 | -104.66170 | 7289 ft | 226 kts | 358° |
| 2026-05-04 19:37 | 39.73255 | -104.66155 | 7227 ft | 197 kts | 357° |
| 2026-05-04 19:37 | 39.74550 | -104.66139 | 6982 ft | 184 kts | 358° |
| 2026-05-04 19:37 | 39.75792 | -104.66135 | 6581 ft | 169 kts | 356° |
| 2026-05-04 19:37 | 39.76397 | -104.66125 | 6440 ft | 163 kts | 358° |
| 2026-05-04 19:38 | 39.77249 | -104.66115 | 6404 ft | 162 kts | 356° |
| 2026-05-04 19:38 | 39.77861 | -104.66109 | 6315 ft | 152 kts | 356° |
| 2026-05-04 19:38 | 39.78873 | -104.66097 | 6069 ft | 144 kts | 356° |
| 2026-05-04 19:38 | 39.79818 | -104.66092 | 5877 ft | 145 kts | 356° |
| 2026-05-04 19:39 | 39.80154 | -104.66084 | 5852 ft | 135 kts | 358° |
| 2026-05-04 19:39 | 39.81088 | -104.66071 | 5795 ft | 129 kts | 356° |
| 2026-05-04 19:39 | 39.82021 | -104.66067 | 5595 ft | 139 kts | 356° |
| 2026-05-04 19:39 | 39.82952 | -104.66054 | 5429 ft | 127 kts | 358° |
| 2026-05-04 19:40 | 39.83755 | -104.66046 | 5416 ft | 96 kts | 1° |
| 2026-05-04 19:40 | 39.84137 | -104.66040 | 5411 ft | 32 kts | 360° |
| 2026-05-04 19:40 | 39.84362 | -104.66038 | 5404 ft | 32 kts | 0° |
| 2026-05-04 19:40 | 39.84575 | -104.66039 | 5404 ft | 29 kts | 358° |
| 2026-05-04 19:41 | 39.84766 | -104.66071 | 5405 ft | 26 kts | 343° |
| 2026-05-04 19:41 | 39.84920 | -104.66166 | 5406 ft | 22 kts | 328° |
| 2026-05-04 19:41 | 39.85049 | -104.66241 | 5409 ft | 18 kts | 353° |
| 2026-05-04 19:41 | 39.85157 | -104.66239 | 5414 ft | 11 kts | 353° |
| 2026-05-04 19:42 | 39.85175 | -104.66245 | 5414 ft | 0 kts | 339° |
| 2026-05-04 19:42 | 39.85194 | -104.66271 | 5415 ft | 6 kts | 304° |
| 2026-05-04 19:42 | 39.85204 | -104.66341 | 5415 ft | 13 kts | 269° |
| 2026-05-04 19:42 | 39.85210 | -104.66467 | 5413 ft | 15 kts | 292° |
| 2026-05-04 19:43 | 39.85334 | -104.66515 | 5417 ft | 24 kts | 351° |
| 2026-05-04 19:43 | 39.85485 | -104.66565 | 5423 ft | 20 kts | 332° |
| 2026-05-04 19:43 | 39.85578 | -104.66685 | 5424 ft | 18 kts | 297° |
| 2026-05-04 19:43 | 39.85588 | -104.66848 | 5421 ft | 18 kts | 269° |
| 2026-05-04 19:44 | 39.85589 | -104.67024 | 5416 ft | 20 kts | 268° |
| 2026-05-04 19:44 | 39.85591 | -104.67224 | 5410 ft | 23 kts | 270° |
| 2026-05-04 19:44 | 39.85593 | -104.67455 | 5396 ft | 28 kts | 270° |
| 2026-05-04 19:44 | 39.85595 | -104.67715 | 5381 ft | 18 kts | 280° |
| 2026-05-04 19:45 | 39.85657 | -104.67860 | 5372 ft | 20 kts | 313° |
| 2026-05-04 19:45 | 39.85725 | -104.67931 | 5368 ft | 4 kts | 326° |
| 2026-05-04 19:45 | 39.85738 | -104.67942 | 5368 ft | 0 kts | 331° |
| 2026-05-04 19:45 | 39.85735 | -104.67995 | 5365 ft | 13 kts | 264° |
| 2026-05-04 19:46 | 39.85736 | -104.68143 | 5355 ft | 19 kts | 272° |
| 2026-05-04 19:46 | 39.85742 | -104.68202 | 5351 ft | 3 kts | 101° |
| 2026-05-04 19:46 | 39.85743 | -104.68156 | 5354 ft | 4 kts | 90° |
| 2026-05-04 19:46 | 39.85743 | -104.68143 | 5355 ft | 0 kts | 88° |
| 2026-05-04 19:47 | 39.85770 | -104.68100 | 5359 ft | 4 kts | 358° |
| 2026-05-04 19:47 | 39.85788 | -104.68101 | 5359 ft | 2 kts | 359° |
| 2026-05-04 19:47 | 39.85808 | -104.68101 | 5359 ft | 1 kts | 360° |
| 2026-05-04 19:47 | 39.85811 | -104.68102 | 5359 ft | 0 kts | 360° |